Atlanta, GA (30314)

8:09 PM EDT on September 30, 2014 (GMT -0400)
Georgia Tech (Midtown) | Change Station
CLOSE
Current Station
Personal Weather Station
Location: Atlanta, GA
Elevation: 935 ft
Nearby Weather Stations

Elev 935 ft 33.78 °N, 84.40 °W | Updated 3 seconds ago

Partly Cloudy
Partly Cloudy
77.9 °F
Feels Like 79 °F
N
0.0
Wind Variable Wind from WNW
Gusts 0.0 mph

Today
High -- | Low -- °F
--% Chance of Precip.
Yesterday
High -- | Low -- °F
Precip. -- in
7:31 AM 7:23 PM
Waxing Crescent, 41% visible
Pressure 29.88 in
Visibility 10.0 miles
Clouds Scattered Clouds 5000 ft
Heat Index 79 °F
Dew Point 58 °F
Humidity 51%
Rainfall 0.01 in
Snow Depth Not available.
UV 0 out of 12
Pollen 6.70 out of 12
Ozone Good
PM2.5 Good
Flu Activity Not available.
METAR KFTY 302353Z 00000KT 10SM SCT050 22/18 A2990 RMK AO2 SLP119 T02170178 10289 20217 53007

More Conditions Fewer Conditions

Pressure 29.88 in
Visibility 10.0 miles
Clouds Scattered Clouds 5000 ft
Heat Index 79 °F
Dew Point 58 °F
Humidity 51%
Rainfall 0.01 in
Snow Depth Not available.
UV 0 out of 12
Pollen 6.70 out of 12
Ozone Good
PM2.5 Good
Flu Activity Not available.
METAR KFTY 302353Z 00000KT 10SM SCT050 22/18 A2990 RMK AO2 SLP119 T02170178 10289 20217 53007

More Conditions Fewer Conditions

10-Day Weather Forecast

Almanac

Astronomy

Sep. 30, 2014 Rise Set
Actual Time 7:31 AM EDT 7:23 PM EDT
Civil Twilight 7:06 AM EDT 7:48 PM EDT
Nautical Twilight 6:37 AM EDT 8:17 PM EDT
Astronomical Twilight 6:08 AM EDT 8:46 PM EDT
Moon 1:26 PM EDT (9/30) No Moon Set
Length of Visible Light 12h 41m
Length of Day
11h 52m
Tomorrow will be 2m 5s shorter.
Waxing Crescent, 41% of the Moon is Illuminated
Today
Waxing Crescent
Oct 1
First Quarter
Oct 8
Full
Oct 15
Last Quarter
Oct 23
New

Today's Extremes

State Highs State Lows

Community

WunderPhotos

Upload Photos

1,757,783 photos uploaded!

Nearby

Air Quality

  Air Quality AQ Index Pollutant
Current Good
PM2.5
Current Good
OZONE
Wednesday Good
OZONE
Wednesday Good
PM2.5

Snow Depth

Station Depth Elevation
No new snow has been reported.

Earthquake Activity

City Distance Mag. Time & Date
No recent earthquake activity has been reported nearby.
Minimum magnitude displayed is 2.5.

Coastal Water Temperatures

Place Temperature
No Stations Reporting

Nearby Weather Stations